Latest Weather Observations for Bourke

IDN60801

Issued at 5:13 pm EDT Saturday 5 December 2020 (issued every 10 minutes, with the page automatically refreshed every 10 minutes)

About weather observations | Map of weather stations | Latest weather observations for NSW | Other Formats
Station Details ID: 048245 Name: BOURKE AIRPORT AWS Lat: -30.04 Lon: 145.95 Height: 107.3 m
Data from the previous 72 hours. | See also: Recent months at Bourke
Date/Time
EDT
Temp
°C
App
Temp
°C
Dew
Point
°C
Rel
Hum
%
Delta-T
°C
Wind Press
QNH
hPa
Press
MSL
hPa
Rain since
9am
mm
Dir  Spd
km/h
Gust
km/h
Spd
kts
Gust
kts
05/05:06pm 40.9 33.0 9.2 15 18.7 NW 41 59 22 32 1000.0 999.3 0.0
05/05:00pm 40.3 31.3 8.7 15 18.5 NNW 46 63 25 34 1000.0 999.3 0.0
05/04:30pm 41.6 32.6 8.7 14 19.3 NNW 46 65 25 35 1000.2 999.5 0.0
05/04:00pm 41.4 33.7 8.5 14 19.3 NW 39 61 21 33 1000.6 999.9 0.0
05/03:30pm 41.9 34.6 8.9 14 19.4 NW 37 57 20 31 1001.1 1000.4 0.0
05/03:00pm 41.8 35.2 9.9 15 19.1 NW 35 54 19 29 1001.5 1000.8 0.0
05/02:31pm 41.4 35.3 9.6 15 18.8 NW 32 54 17 29 1002.2 1001.5 0.0
05/02:30pm 42.1 36.1 10.1 15 19.2 NW 32 46 17 25 1002.3 1001.6 0.0
05/02:00pm 41.1 34.3 9.3 15 18.8 NW 35 54 19 29 1002.9 1002.2 0.0
05/01:50pm 41.7 35.4 8.8 14 19.3 NW 32 54 17 29 1003.0 1002.3 0.0
05/01:45pm 42.0 37.5 10.0 15 19.1 NW 24 43 13 23 1003.1 1002.4 0.0
05/01:30pm 40.6 39.0 11.7 18 17.6 WNW 11 20 6 11 1003.7 1003.0 0.0
05/01:00pm 39.3 38.3 12.2 20 16.6 NNE 9 17 5 9 1004.6 1003.9 0.0
05/12:30pm 38.9 38.1 14.0 23 15.6 NE 11 17 6 9 1005.1 1004.4 0.0
05/12:00pm 36.1 36.1 14.1 26 13.7 ESE 7 11 4 6 1006.0 1005.3 0.0
05/11:30am 34.9 34.7 13.7 28 13.0 SSE 7 11 4 6 1006.4 1005.7 0.0
05/11:00am 34.3 34.7 13.7 29 12.6 N 4 11 2 6 1007.2 1006.6 0.0
05/10:30am 33.3 33.4 13.9 31 11.9 NE 6 15 3 8 1008.1 1007.5 0.0
05/10:00am 33.0 33.0 14.1 32 11.6 NE 7 13 4 7 1008.5 1007.9 0.0
05/09:30am 32.2 32.8 14.3 33 11.0 ESE 4 7 2 4 1008.8 1008.2 0.0
05/09:00am 30.2 31.0 14.7 39 9.5 SSE 4 13 2 7 1008.4 1007.8 0.0
05/08:30am 29.9 28.8 14.4 38 9.4 SE 13 22 7 12 1008.2 1007.6 0.0
05/08:00am 29.6 29.6 15.3 41 8.8 NNW 9 13 5 7 1008.0 1007.4 0.0
05/07:30am 29.0 28.3 15.5 44 8.3 N 13 17 7 9 1007.5 1006.9 0.0
05/07:00am 28.7 28.3 15.2 43 8.3 N 11 13 6 7 1007.2 1006.6 0.0
05/06:30am 28.6 28.2 15.2 44 8.2 NE 11 15 6 8 1006.6 1005.9 0.0
05/06:00am 28.3 28.2 14.9 44 8.2 NE 9 13 5 7 1006.6 1005.9 0.0
05/05:30am 28.1 28.1 14.3 42 8.3 NE 7 9 4 5 1006.7 1006.0 0.0
05/05:00am 28.4 28.1 14.3 42 8.5 NNE 9 13 5 7 1006.7 1006.0 0.0
05/04:30am 28.7 27.5 14.1 40 8.8 NE 13 17 7 9 1006.5 1005.8 0.0
05/04:00am 28.9 28.4 13.9 39 9.0 NE 9 15 5 8 1006.9 1006.2 0.0
05/03:30am 29.6 28.0 13.8 38 9.5 NE 15 19 8 10 1007.1 1006.5 0.0
05/03:00am 29.9 29.0 13.6 36 9.8 NE 11 15 6 8 1007.5 1006.9 0.0
05/02:30am 30.5 29.2 13.7 35 10.1 NE 13 17 7 9 1007.5 1006.9 0.0
05/02:00am 31.2 29.1 13.5 34 10.7 NE 17 20 9 11 1007.9 1007.3 0.0
05/01:30am 31.6 29.1 12.4 31 11.4 NE 17 24 9 13 1008.2 1007.6 0.0
05/01:00am 30.9 28.2 10.3 28 11.8 E 15 19 8 10 1008.4 1007.8 0.0
05/12:30am 29.7 27.3 7.0 24 12.2 SE 9 11 5 6 1008.5 1007.9 0.0
05/12:00am 30.5 28.1 7.0 23 12.8 SSE 9 11 5 6 1008.7 1008.1 0.0
 
Date/Time
EDT
Temp
°C
App
Temp
°C
Dew
Point
°C
Rel
Hum
%
Delta-T
°C
Wind Press
QNH
hPa
Press
MSL
hPa
Rain since
9am
mm
Dir  Spd
km/h
Gust
km/h
Spd
kts
Gust
kts
04/11:30pm 31.0 28.7 7.5 23 12.9 SSE 9 11 5 6 1009.0 1008.4 0.0
04/11:00pm 31.9 29.6 7.5 22 13.5 SSE 9 13 5 7 1008.8 1008.2 0.0
04/10:30pm 32.3 30.6 8.5 23 13.3 SSE 7 9 4 5 1008.7 1008.1 0.0
04/10:00pm 33.2 31.6 8.6 22 13.9 SSW 7 11 4 6 1008.4 1007.8 0.0
04/09:30pm 34.0 32.0 8.6 21 14.4 SSW 9 11 5 6 1008.3 1007.7 0.0
04/09:00pm 34.9 33.4 9.3 21 14.7 SSW 7 11 4 6 1008.1 1007.5 0.0
04/08:30pm 36.2 34.8 9.7 20 15.4 S 7 9 4 5 1007.9 1007.3 0.0
04/08:00pm 37.6 35.0 9.2 18 16.5 S 13 19 7 10 1007.6 1007.0 0.0
04/07:30pm 38.9 37.3 10.3 18 17.0 SSW 9 13 5 7 1007.4 1006.8 0.0
04/07:00pm 39.2 37.5 11.3 19 16.8 S 11 20 6 11 1007.3 1006.7 0.0
04/06:30pm 39.1 36.5 12.0 20 16.5 WSW 17 28 9 15 1007.2 1006.6 0.0
04/06:00pm 39.4 37.7 12.3 20 16.6 SW 13 20 7 11 1007.5 1006.9 0.0
04/05:30pm 39.5 38.0 13.1 21 16.3 NW 13 17 7 9 1007.8 1007.2 0.0
04/05:00pm 39.7 37.9 13.3 21 16.4 W 15 26 8 14 1008.2 1007.6 0.0
04/04:30pm 39.4 38.1 13.7 21 16.0 WNW 13 20 7 11 1008.7 1008.1 0.0
04/04:00pm 39.0 37.4 12.7 21 16.2 WSW 13 30 7 16 1009.2 1008.6 0.0
04/03:30pm 38.8 38.3 13.9 22 15.5 E 9 17 5 9 1009.7 1009.0 0.0
04/03:00pm 38.8 38.0 13.9 22 15.5 WNW 11 20 6 11 1010.3 1009.6 0.0
04/02:30pm 38.1 37.9 14.6 24 14.8 SSW 9 17 5 9 1010.9 1010.2 0.0
04/02:00pm 36.7 36.9 14.6 26 13.8 SW 7 15 4 8 1011.4 1010.7 0.0
04/01:30pm 36.8 36.2 14.7 26 13.8 NNW 11 20 6 11 1012.1 1011.4 0.0
04/01:00pm 35.3 35.1 14.6 29 12.9 SW 9 19 5 10 1012.7 1012.0 0.0
04/12:30pm 35.0 34.6 15.3 30 12.4 NW 11 19 6 10 1013.4 1012.7 0.0
04/12:00pm 34.7 34.6 16.1 33 11.8 N 11 20 6 11 1013.7 1013.0 0.0
04/11:30am 33.9 33.7 15.8 33 11.4 N 11 20 6 11 1014.2 1013.5 0.0
04/11:00am 32.8 31.6 16.2 37 10.5 NNE 17 26 9 14 1014.5 1013.8 0.0
04/10:30am 31.8 31.1 17.3 42 9.3 N 17 22 9 12 1014.7 1014.0 0.0
04/10:00am 30.3 29.6 17.4 46 8.2 NNE 17 24 9 13 1014.9 1014.2 0.0
04/09:30am 29.4 28.2 17.6 49 7.5 NNE 20 30 11 16 1015.0 1014.3 0.0
04/09:00am 28.2 27.3 17.7 53 6.7 NE 19 26 10 14 1015.3 1014.7 0.0
04/08:30am 27.9 26.8 17.7 53 6.5 NE 20 28 11 15 1015.3 1014.7 0.0
04/08:00am 27.9 26.9 18.0 55 6.3 NE 20 28 11 15 1015.0 1014.3 0.0
04/07:30am 27.2 26.1 17.7 56 6.0 ENE 20 28 11 15 1014.7 1014.0 0.0
04/07:00am 27.3 26.2 17.8 56 6.0 ENE 20 28 11 15 1014.8 1014.1 0.0
04/06:30am 27.4 26.8 17.6 55 6.2 ENE 17 20 9 11 1014.3 1013.6 0.0
04/06:00am 27.4 27.3 17.0 53 6.5 ENE 13 17 7 9 1013.8 1013.1 0.0
04/05:30am 27.7 26.9 16.0 49 7.2 ENE 15 22 8 12 1013.5 1012.8 0.0
04/05:00am 27.7 26.8 13.6 42 8.4 ESE 11 13 6 7 1012.9 1012.2 0.0
04/04:30am 27.6 26.0 11.6 37 9.2 ESE 11 13 6 7 1012.7 1012.0 0.0
04/04:00am 27.6 25.3 10.3 34 9.8 ESE 13 15 7 8 1012.7 1012.0 0.0
04/03:30am 27.5 25.4 9.8 33 9.9 SSE 11 15 6 8 1012.8 1012.1 0.0
04/03:00am 28.1 25.4 8.9 30 10.6 SSE 13 17 7 9 1013.4 1012.7 0.0
04/02:30am 28.5 26.1 10.2 32 10.3 S 13 17 7 9 1013.5 1012.8 0.0
04/02:00am 28.8 25.8 10.5 32 10.4 SSW 17 20 9 11 1013.9 1013.2 0.0
04/01:30am 28.3 25.9 10.0 32 10.3 SW 13 15 7 8 1014.4 1013.7 0.0
04/01:00am 28.8 27.7 10.5 32 10.4 SW 7 11 4 6 1014.8 1014.1 0.0
04/12:30am 28.9 27.4 10.6 32 10.4 SE 9 9 5 5 1014.4 1013.7 0.0
04/12:00am 29.4 29.6 10.5 31 10.8 CALM 0 6 0 3 1014.6 1013.9 0.0
 
Date/Time
EDT
Temp
°C
App
Temp
°C
Dew
Point
°C
Rel
Hum
%
Delta-T
°C
Wind Press
QNH
hPa
Press
MSL
hPa
Rain since
9am
mm
Dir  Spd
km/h
Gust
km/h
Spd
kts
Gust
kts
03/11:30pm 29.9 28.5 10.9 31 10.9 S 9 13 5 7 1014.3 1013.6 0.0
03/11:00pm 29.1 27.8 11.2 33 10.3 SSW 9 11 5 6 1014.3 1013.6 0.0
03/10:30pm 29.9 29.2 11.9 33 10.5 SW 7 9 4 5 1014.2 1013.5 0.0
03/10:00pm 30.2 29.3 11.2 31 11.0 SE 7 7 4 4 1013.4 1012.7 0.0
03/09:30pm 31.2 31.6 11.1 29 11.7 CALM 0 0 0 0 1013.6 1012.9 0.0
03/09:00pm 32.2 30.9 11.4 28 12.2 NNE 9 19 5 10 1013.7 1013.0 0.0
03/08:30pm 32.3 28.6 11.5 28 12.2 SE 22 30 12 16 1012.5 1011.8 0.0
03/08:00pm 32.9 30.0 9.7 24 13.3 E 15 20 8 11 1013.7 1013.0 0.0
03/07:30pm 33.0 29.2 9.1 23 13.6 SSE 19 26 10 14 1013.8 1013.1 0.0
03/07:00pm 33.5 30.0 10.8 25 13.3 S 20 26 11 14 1014.1 1013.4 0.0
03/06:30pm 33.7 29.6 11.5 26 13.1 S 24 35 13 19 1014.0 1013.3 0.0
03/06:00pm 35.1 30.4 12.1 25 13.8 SSW 28 37 15 20 1013.5 1012.8 0.0
03/05:30pm 36.6 32.7 10.7 21 15.3 S 22 32 12 17 1013.2 1012.5 0.0
03/05:00pm 36.4 33.0 11.3 22 14.9 SSE 20 32 11 17 1013.2 1012.5 0.0
03/04:30pm 36.8 33.7 12.3 23 14.8 SSE 20 30 11 16 1013.2 1012.5 0.0
03/04:00pm 36.6 33.9 13.4 25 14.3 S 20 30 11 16 1013.5 1012.8 0.0
03/03:30pm 36.3 33.9 13.7 25 13.9 SSE 19 30 10 16 1013.8 1013.1 0.0
03/03:00pm 36.1 33.8 14.1 26 13.6 SSE 19 32 10 17 1014.2 1013.5 0.0
03/02:30pm 35.6 33.9 13.7 27 13.5 SSE 15 26 8 14 1014.5 1013.8 0.0
03/02:00pm 35.0 33.7 13.8 28 13.0 S 13 24 7 13 1015.2 1014.5 0.0
03/01:30pm 34.3 32.8 13.2 28 12.8 SE 13 20 7 11 1015.6 1015.0 0.0
03/01:00pm 32.9 30.8 12.5 29 12.2 SE 15 20 8 11 1015.4 1014.8 0.0
03/12:30pm 32.8 31.6 12.9 29 12.0 SE 11 19 6 10 1015.9 1015.3 0.0
03/12:00pm 31.7 29.5 12.0 30 11.6 ESE 15 20 8 11 1016.1 1015.5 0.0
03/11:30am 31.3 28.1 11.1 29 11.7 SE 19 26 10 14 1016.7 1016.1 0.0
03/11:00am 29.5 25.6 9.6 29 11.2 SSE 20 26 11 14 1016.9 1016.3 0.0
03/10:30am 28.6 23.8 7.2 26 11.5 SSE 22 32 12 17 1017.0 1016.4 0.0
03/10:00am 28.1 23.3 5.6 24 11.7 SSE 20 30 11 16 1017.0 1016.4 0.0
03/09:30am 27.5 22.9 3.9 22 11.9 SSE 17 24 9 13 1017.2 1016.6 0.0
03/09:00am 25.2 19.5 2.6 23 11.0 S 22 30 12 16 1017.3 1016.7 0.0
03/08:30am 24.5 19.3 2.6 24 10.6 SSE 19 26 10 14 1016.8 1016.2 0.0
03/08:00am 24.1 18.9 0.4 21 10.9 SSE 17 24 9 13 1016.4 1015.8 0.0
03/07:30am 23.4 18.4 -1.5 19 11.0 SSE 15 20 8 11 1016.4 1015.8 0.0
03/07:00am 22.7 17.2 -2.1 19 10.8 SSW 17 20 9 11 1016.5 1015.9 0.0
03/06:30am 22.9 17.8 -1.9 19 10.9 SW 15 19 8 10 1016.9 1016.3 0.0
03/06:00am 22.5 17.1 -1.6 20 10.6 SSE 17 26 9 14 1015.6 1015.0 0.0
03/05:30am 22.7 17.6 -2.1 19 10.8 S 15 20 8 11 1016.0 1015.4 0.0
03/05:00am 22.6 18.0 -0.8 21 10.4 SSW 13 17 7 9 1015.9 1015.3 0.0
03/04:30am 23.0 17.7 -3.3 17 11.2 SSE 15 20 8 11 1015.6 1015.0 0.0
03/04:00am 22.9 18.0 -3.4 17 11.2 SSE 13 17 7 9 1015.8 1015.2 0.0
03/03:30am 23.2 18.3 -3.2 17 11.3 SSE 13 17 7 9 1015.7 1015.1 0.0
03/03:00am 23.7 18.3 -4.4 15 11.8 SE 15 20 8 11 1015.6 1015.0 0.0
03/02:30am 24.0 18.2 -4.2 15 11.9 SE 17 22 9 12 1016.0 1015.4 0.0
03/02:00am 24.3 18.3 -3.1 16 11.9 SSE 19 26 10 14 1016.3 1015.7 0.0
03/01:30am 24.7 18.6 -3.6 15 12.2 SSE 19 24 10 13 1016.5 1015.9 0.0
03/01:00am 25.2 19.4 -4.2 14 12.6 SSE 17 20 9 11 1016.8 1016.2 0.0
03/12:30am 26.0 20.3 -3.5 14 12.9 SSE 17 22 9 12 1017.0 1016.4 0.0
03/12:00am 26.4 20.1 -4.2 13 13.2 SSE 20 28 11 15 1017.2 1016.6 0.0
 
Date/Time
EDT
Temp
°C
App
Temp
°C
Dew
Point
°C
Rel
Hum
%
Delta-T
°C
Wind Press
QNH
hPa
Press
MSL
hPa
Rain since
9am
mm
Dir  Spd
km/h
Gust
km/h
Spd
kts
Gust
kts
02/11:30pm 26.5 20.2 -4.1 13 13.3 SSE 20 28 11 15 1017.6 1017.0 0.0
02/11:00pm 27.1 20.3 -4.7 12 13.7 SSE 22 30 12 16 1017.5 1016.9 0.0
02/10:30pm 27.7 21.3 -5.4 11 14.2 SSE 20 28 11 15 1017.3 1016.7 0.0
02/10:00pm 28.3 21.0 -6.2 10 14.6 SSE 24 32 13 17 1017.0 1016.4 0.0
02/09:30pm 29.0 20.9 -7.0 9 15.2 SSE 28 35 15 19 1016.7 1016.1 0.0
02/09:00pm 30.0 21.9 -6.3 9 15.6 SSE 28 35 15 19 1016.5 1015.9 0.0
02/08:30pm 31.1 24.6 -5.5 9 16.1 SSE 20 28 11 15 1015.8 1015.2 0.0
02/08:00pm 32.6 26.0 -2.9 10 16.5 SSE 22 30 12 16 1015.2 1014.5 0.0
02/07:30pm 33.8 27.9 -0.7 11 16.8 S 20 28 11 15 1014.8 1014.1 0.0
02/07:00pm 35.0 29.4 1.4 12 17.0 SSE 20 26 11 14 1014.3 1013.6 0.0
02/06:30pm 35.8 30.3 2.0 12 17.4 SSE 20 28 11 15 1013.8 1013.1 0.0
02/06:00pm 35.7 30.2 1.9 12 17.4 SSE 20 32 11 17 1013.6 1012.9 0.0
02/05:30pm 36.3 29.8 2.4 12 17.6 SSE 26 33 14 18 1013.7 1013.0 0.0

Other formats

Comma delimited format used in spreadsheet applications
http://www.bom.gov.au/fwo/IDN60801/IDN60801.94703.axf

JavaScript Object Notation format (JSON) in row-major order
http://www.bom.gov.au/fwo/IDN60801/IDN60801.94703.json

Data quality

Most of these data are generated automatically and are frequently updated. Quality checks on data are not normally performed. It is possible for incorrect values to appear. Refer to information at About Latest Weather Observations and please check the disclaimer before using these data.